createdAt,value
2023-01-11T00:03:41.385Z,105004.06
2023-01-11T00:08:44.504Z,104993.09
2023-01-11T00:13:47.739Z,104993.97
2023-01-11T00:18:50.919Z,104981.91
2023-01-11T00:23:53.982Z,104952.34
2023-01-11T00:28:57.060Z,104967.53
2023-01-11T00:34:00.572Z,104969.53
2023-01-11T00:39:03.641Z,104949.22
2023-01-11T00:44:25.312Z,104940.06
2023-01-11T00:49:28.559Z,104964.34
2023-01-11T00:54:31.708Z,104941.16
2023-01-11T00:59:36.295Z,104978.94
2023-01-11T01:04:40.122Z,104977.75
2023-01-11T01:09:43.156Z,104987.38
2023-01-11T01:14:47.642Z,104984.88
2023-01-11T01:19:50.660Z,104980.28
2023-01-11T01:24:53.760Z,104983.25
2023-01-11T01:29:56.831Z,104964.47
2023-01-11T01:34:59.954Z,104994.88
2023-01-11T01:40:03.669Z,104960.78
2023-01-11T01:45:18.012Z,104986.44
2023-01-11T01:50:25.841Z,104954.19
2023-01-11T01:55:33.611Z,104975.69
2023-01-11T02:00:40.084Z,104949.19
2023-01-11T02:05:47.216Z,104980.03
2023-01-11T02:10:51.043Z,104985.16
2023-01-11T02:16:08.273Z,104961.41
2023-01-11T02:21:42.926Z,104970.19
2023-01-11T02:27:16.111Z,104965.03
2023-01-11T02:32:52.934Z,105003.84
2023-01-11T02:38:20.297Z,105006.22
2023-01-11T02:44:02.025Z,104984.06
2023-01-11T02:49:34.022Z,105004.19
2023-01-11T02:54:39.611Z,104980.41
2023-01-11T02:59:42.934Z,105012.16
2023-01-11T03:04:45.994Z,104987.13
2023-01-11T03:09:51.583Z,105018.47
2023-01-11T03:15:18.863Z,105022.06
2023-01-11T03:20:31.073Z,104980.25
2023-01-11T03:25:51.099Z,104986.91
2023-01-11T03:31:07.408Z,104989.31
2023-01-11T03:36:16.553Z,105013.72
2023-01-11T03:41:22.607Z,104999.81
2023-01-11T03:46:32.376Z,104968.94
2023-01-11T03:51:42.910Z,104992.47
2023-01-11T03:56:59.337Z,104959.94
2023-01-11T04:02:03.060Z,104976.00
2023-01-11T04:07:06.143Z,104993.44
2023-01-11T04:12:09.334Z,104965.41
2023-01-11T04:17:12.445Z,104959.66
2023-01-11T04:22:15.998Z,104968.88
2023-01-11T04:27:19.145Z,104991.38
2023-01-11T04:32:22.200Z,104975.56
2023-01-11T04:37:25.259Z,105001.34
2023-01-11T04:42:28.363Z,104975.56
2023-01-11T04:47:31.789Z,105004.41
2023-01-11T04:52:34.918Z,104978.53
2023-01-11T04:57:38.143Z,104975.81
2023-01-11T05:02:41.320Z,104989.66
2023-01-11T05:07:44.555Z,104979.78
2023-01-11T05:12:47.691Z,105002.81
2023-01-11T05:17:50.549Z,105011.66
2023-01-11T05:22:53.566Z,105013.41
2023-01-11T05:27:56.681Z,105019.13
2023-01-11T05:32:59.757Z,105019.53
2023-01-11T05:38:02.816Z,104991.97
2023-01-11T05:43:05.987Z,104999.59
2023-01-11T05:48:09.039Z,105017.03
2023-01-11T05:53:12.125Z,105031.41
2023-01-11T05:58:15.199Z,105024.53
2023-01-11T06:03:19.276Z,105015.34
2023-01-11T06:08:22.418Z,104996.66
2023-01-11T06:13:29.073Z,104993.38
2023-01-11T06:18:35.138Z,105021.72
2023-01-11T06:23:40.736Z,105004.56
2023-01-11T06:28:44.066Z,105026.97
2023-01-11T06:33:47.644Z,105015.44
2023-01-11T06:38:52.648Z,105003.28
2023-01-11T06:43:55.724Z,104995.47
2023-01-11T06:48:58.896Z,104998.09
2023-01-11T06:54:01.993Z,105011.00
2023-01-11T06:59:05.169Z,105015.31
2023-01-11T07:04:08.636Z,104999.88
2023-01-11T07:09:11.767Z,105013.41
2023-01-11T07:14:20.184Z,105026.69
2023-01-11T07:19:23.374Z,104998.88
2023-01-11T07:24:28.560Z,105011.56
2023-01-11T07:29:31.630Z,105024.66
2023-01-11T07:34:35.104Z,104995.16
2023-01-11T07:39:43.832Z,105015.03
2023-01-11T07:44:47.280Z,105016.38
2023-01-11T07:49:50.419Z,105012.44
2023-01-11T07:54:53.609Z,105005.25
2023-01-11T07:59:56.711Z,104995.00
2023-01-11T08:05:01.189Z,104987.09
2023-01-11T08:10:36.566Z,104968.84
2023-01-11T08:15:42.856Z,104978.50
2023-01-11T08:20:46.770Z,104958.94
2023-01-11T08:25:50.040Z,104936.31
2023-01-11T08:30:53.184Z,104957.28
2023-01-11T08:35:56.269Z,104964.69
2023-01-11T08:40:59.694Z,104957.09
2023-01-11T08:46:03.088Z,104909.19
2023-01-11T08:56:26.877Z,104939.03
2023-01-11T09:01:30.335Z,104945.13
2023-01-11T09:06:33.443Z,104909.91
2023-01-11T09:11:54.797Z,104928.44
2023-01-11T09:16:58.292Z,104924.56
2023-01-11T09:22:09.985Z,104928.47
2023-01-11T09:27:13.163Z,104925.13
2023-01-11T09:32:16.578Z,104918.72
2023-01-11T09:37:20.591Z,104918.25
2023-01-11T09:42:40.185Z,104911.28
2023-01-11T09:48:12.098Z,104899.44
2023-01-11T09:53:36.507Z,104853.34
2023-01-11T09:58:57.848Z,104879.31
2023-01-11T10:04:33.256Z,104874.59
2023-01-11T10:18:37.593Z,104835.44
2023-01-11T10:21:23.756Z,104855.00
2023-01-11T10:26:29.541Z,104844.06
2023-01-11T10:31:51.417Z,104841.22
2023-01-11T10:42:46.947Z,104829.31
2023-01-11T10:48:03.224Z,104807.91
2023-01-11T10:53:21.032Z,104822.03
2023-01-11T10:58:46.479Z,104797.16
2023-01-11T11:04:04.494Z,104773.09
2023-01-11T11:15:14.380Z,104793.16
2023-01-11T11:25:43.374Z,104770.00
2023-01-11T11:30:47.839Z,104786.38
2023-01-11T11:36:00.475Z,104748.59
2023-01-11T11:41:10.512Z,104785.41
2023-01-11T11:46:20.490Z,104774.56
2023-01-11T11:51:25.585Z,104748.34
2023-01-11T11:56:33.348Z,104749.88
2023-01-11T12:01:46.963Z,104733.88
2023-01-11T12:07:19.800Z,104728.03
2023-01-11T12:12:26.914Z,104754.94
2023-01-11T12:17:31.075Z,104684.56
2023-01-11T12:22:34.241Z,104735.50
2023-01-11T12:27:55.697Z,104733.13
2023-01-11T12:33:13.542Z,104739.44
2023-01-11T12:38:32.134Z,104737.03
2023-01-11T12:43:59.835Z,104729.81
2023-01-11T12:49:02.924Z,104730.09
2023-01-11T12:54:17.881Z,104737.56
2023-01-11T12:59:57.337Z,104739.31
2023-01-11T13:05:03.329Z,104747.63
2023-01-11T13:10:15.801Z,104749.63
2023-01-11T13:15:42.203Z,104757.34
2023-01-11T13:21:01.240Z,104728.22
2023-01-11T13:26:23.733Z,104742.91
2023-01-11T13:31:27.455Z,104761.91
2023-01-11T13:36:41.128Z,104761.84
2023-01-11T13:42:50.024Z,104746.53
2023-01-11T13:47:30.083Z,104763.78
2023-01-11T13:52:48.410Z,104761.47
2023-01-11T14:03:41.568Z,104774.28
2023-01-11T14:08:54.966Z,104762.44
2023-01-11T14:14:35.391Z,104777.22
2023-01-11T14:20:01.738Z,104761.72
2023-01-11T14:25:15.527Z,104778.59
2023-01-11T14:30:18.581Z,104774.75
2023-01-11T14:35:43.721Z,104788.28
2023-01-11T14:40:54.621Z,104785.56
2023-01-11T14:46:00.787Z,104797.19
2023-01-11T14:51:23.936Z,104803.16
2023-01-11T14:57:01.865Z,104781.28
2023-01-11T15:02:16.540Z,104805.59
2023-01-11T15:07:33.705Z,104799.09
2023-01-11T15:12:41.371Z,104789.41
2023-01-11T15:18:05.251Z,104785.66
2023-01-11T15:23:32.648Z,104772.91
2023-01-11T15:29:03.585Z,104811.19
2023-01-11T15:34:25.219Z,104777.56
2023-01-11T15:39:58.448Z,104767.31
2023-01-11T15:45:14.543Z,104792.03
2023-01-11T15:50:54.852Z,104789.81
2023-01-11T15:56:22.600Z,104783.22
2023-01-11T16:01:29.301Z,104789.81
2023-01-11T16:07:09.777Z,104778.56
2023-01-11T16:12:30.434Z,104773.09
2023-01-11T16:17:33.823Z,104755.59
2023-01-11T16:22:37.047Z,104758.00
2023-01-11T16:27:40.396Z,104766.31
2023-01-11T16:32:43.492Z,104772.25
2023-01-11T16:38:02.056Z,104788.19
2023-01-11T16:43:22.469Z,104773.72
2023-01-11T16:48:27.619Z,104729.25
2023-01-11T16:53:34.375Z,104763.09
2023-01-11T16:58:39.532Z,104756.00
2023-01-11T17:03:51.129Z,104732.91
2023-01-11T17:08:56.863Z,104716.63
2023-01-11T17:14:38.315Z,104743.94
2023-01-11T17:19:47.367Z,104733.59
2023-01-11T17:24:53.076Z,104732.31
2023-01-11T17:29:58.626Z,104714.16
2023-01-11T17:35:05.852Z,104710.31
2023-01-11T17:40:32.183Z,104695.13
2023-01-11T17:45:36.394Z,104713.47
2023-01-11T17:50:58.234Z,104690.47
2023-01-11T17:56:07.608Z,104699.31
2023-01-11T18:01:16.656Z,104700.50
2023-01-11T18:06:37.799Z,104660.53
2023-01-11T18:11:41.807Z,104671.31
2023-01-11T18:17:03.622Z,104637.66
2023-01-11T18:22:43.347Z,104661.63
2023-01-11T18:27:47.389Z,104658.47
2023-01-11T18:32:50.715Z,104653.34
2023-01-11T18:37:53.867Z,104667.63
2023-01-11T18:42:57.779Z,104645.03
2023-01-11T18:48:00.895Z,104628.34
2023-01-11T18:53:04.044Z,104633.00
2023-01-11T18:58:07.237Z,104616.38
2023-01-11T19:03:12.003Z,104632.47
2023-01-11T19:08:15.089Z,104632.38
2023-01-11T19:13:19.805Z,104606.06
2023-01-11T19:18:23.373Z,104605.38
2023-01-11T19:23:26.502Z,104625.78
2023-01-11T19:28:30.079Z,104585.84
2023-01-11T19:33:33.145Z,104590.09
2023-01-11T19:38:36.488Z,104597.38
2023-01-11T19:43:45.219Z,104601.59
2023-01-11T19:48:48.075Z,104594.75
2023-01-11T19:53:51.026Z,104600.41
2023-01-11T19:58:54.148Z,104600.97
2023-01-11T20:03:57.171Z,104569.97
2023-01-11T20:09:00.469Z,104602.19
2023-01-11T20:14:03.523Z,104562.91
2023-01-11T20:19:06.653Z,104591.59
2023-01-11T20:24:13.203Z,104584.16
2023-01-11T20:29:16.289Z,104585.03
2023-01-11T20:34:19.755Z,104585.69
2023-01-11T20:39:22.812Z,104540.47
2023-01-11T20:44:32.380Z,104535.56
2023-01-11T20:49:35.564Z,104560.03
2023-01-11T20:54:38.678Z,104563.53
2023-01-11T20:59:41.742Z,104544.31
2023-01-11T21:04:44.780Z,104512.34
2023-01-11T21:09:47.828Z,104528.22
2023-01-11T21:14:51.035Z,104521.66
2023-01-11T21:19:54.294Z,104521.41
2023-01-11T21:24:57.383Z,104514.59
2023-01-11T21:30:00.353Z,104508.16
2023-01-11T21:35:03.494Z,104477.41
2023-01-11T21:40:07.051Z,104499.13
2023-01-11T21:45:11.397Z,104501.78
2023-01-11T21:50:14.483Z,104494.53
2023-01-11T21:55:18.106Z,104493.69
2023-01-11T22:00:21.454Z,104496.56
2023-01-11T22:05:25.164Z,104487.66
2023-01-11T22:10:28.297Z,104446.56
2023-01-11T22:15:54.246Z,104475.94
2023-01-11T22:20:57.980Z,104472.44
2023-01-11T22:31:31.878Z,104428.75
2023-01-11T22:36:35.024Z,104428.38
2023-01-11T22:41:40.267Z,104451.53
2023-01-11T22:46:44.269Z,104451.91
2023-01-11T22:51:47.393Z,104431.78
2023-01-11T22:56:50.596Z,104421.31
2023-01-11T23:01:53.607Z,104418.66
2023-01-11T23:06:57.675Z,104429.25
2023-01-11T23:12:19.150Z,104432.53
2023-01-11T23:17:22.314Z,104440.41
2023-01-11T23:22:25.429Z,104460.00
2023-01-11T23:27:28.515Z,104464.03
2023-01-11T23:32:31.708Z,104442.09
2023-01-11T23:37:34.825Z,104410.84
2023-01-11T23:42:38.918Z,104404.59
2023-01-11T23:47:42.054Z,104430.97
2023-01-11T23:52:45.089Z,104395.03
2023-01-11T23:58:08.109Z,104418.38
